Lafayette Hill, Pennsylvania
Current Conditions -  °F | °C
As of 9:55 AM on Wednesday 26 Nov 2014 (Local Time) from KLOM Reporting Station
Overcast Overcast  
Wind Chill: 36°   Ceiling: 900
Heat Index: 36°   Visibility: 2.5mi
Dew Point: 34°   Wind: 0mph
Humidity: 93%   Direction: NA
Pressure: 30.12"   Gusts: NA
Location:  40.09°N, 75.25°W
Report Text: KLOM 261455Z AUTO 00000KT 2 1/2SM OVC009 02/01 A3012 RMK AO1 P0007
Loading
Personal Weather Stations






























Interactive Weather Map New forecast layout! Learn more

10-Day Weather Forecast

Advertisements
Track Severe Weather on mobile